Time;durP1;ratioP1;P1;durP2;ratioP2;P2;SDS_P1;SDS_P2;PMS_P1;PMS_P2;Temp;Humidity;BMP_temperature;BMP_pressure;BME280_temperature;BME280_humidity;BME280_pressure;Samples;Min_cycle;Max_cycle;Signal;HPM_P1;HPM_P2
2022/06/28 00:00:17;;;;;;;5.78;1.08;;;15.70;99.90;;;;;;5088817;28;20031;-73
2022/06/28 00:02:43;;;;;;;3.83;1.35;;;15.60;99.90;;;;;;5091999;28;20182;-74
2022/06/28 00:05:10;;;;;;;3.35;1.08;;;15.70;99.90;;;;;;5081445;28;20107;-74
2022/06/28 00:07:36;;;;;;;4.80;1.13;;;15.60;99.90;;;;;;5089364;28;20028;-74
2022/06/28 00:10:02;;;;;;;5.43;1.02;;;15.60;99.90;;;;;;5091360;28;20024;-73
2022/06/28 00:12:28;;;;;;;4.50;1.15;;;15.60;99.90;;;;;;5090689;28;20477;-74
2022/06/28 00:17:38;;;;;;;5.53;1.10;;;15.50;99.90;;;;;;5091431;28;20163;-74
2022/06/28 00:20:05;;;;;;;4.13;1.20;;;15.40;99.90;;;;;;5092132;28;20111;-74
2022/06/28 00:22:30;;;;;;;2.85;0.88;;;15.50;99.90;;;;;;5091521;28;20039;-74
2022/06/28 00:24:56;;;;;;;2.90;0.90;;;15.50;99.90;;;;;;5092136;28;20024;-74
2022/06/28 00:27:22;;;;;;;7.55;1.35;;;15.50;99.90;;;;;;5092572;28;20032;-74
2022/06/28 00:29:47;;;;;;;6.68;1.02;;;15.40;99.90;;;;;;5091509;28;20024;-74
2022/06/28 00:32:13;;;;;;;4.10;1.20;;;15.40;99.90;;;;;;5091895;28;20051;-74
2022/06/28 00:34:38;;;;;;;2.83;0.98;;;15.40;99.90;;;;;;5092078;28;20047;-74
2022/06/28 00:37:04;;;;;;;4.05;0.98;;;15.40;99.90;;;;;;5090848;28;20031;-74
2022/06/28 00:39:30;;;;;;;4.80;1.10;;;15.20;99.90;;;;;;5092304;28;20024;-74
2022/06/28 00:41:56;;;;;;;5.70;1.20;;;15.20;99.90;;;;;;5091998;28;20024;-74
2022/06/28 00:44:22;;;;;;;6.25;1.02;;;15.30;99.90;;;;;;5091477;28;20031;-74
2022/06/28 00:46:48;;;;;;;3.38;1.00;;;15.20;99.90;;;;;;5091593;28;20043;-73
2022/06/28 00:49:15;;;;;;;6.63;1.10;;;15.10;99.90;;;;;;5092028;28;20031;-74
2022/06/28 00:51:41;;;;;;;1.60;0.80;;;15.30;99.90;;;;;;5090936;28;20438;-74
2022/06/28 00:54:07;;;;;;;2.65;0.73;;;15.30;99.90;;;;;;5095649;28;20020;-75
2022/06/28 00:56:33;;;;;;;4.00;0.82;;;15.20;99.90;;;;;;5096239;28;20464;-75
2022/06/28 00:59:00;;;;;;;5.93;1.55;;;15.10;99.90;;;;;;5094701;28;20031;-74
2022/06/28 01:01:26;;;;;;;4.80;1.23;;;15.10;99.90;;;;;;5095848;28;20097;-74
2022/06/28 01:03:54;;;;;;;5.63;1.33;;;15.20;99.90;;;;;;5095253;28;20044;-73
2022/06/28 01:06:19;;;;;;;5.70;0.95;;;15.20;99.90;;;;;;5093149;28;20402;-73
2022/06/28 01:08:46;;;;;;;7.22;1.00;;;15.20;99.90;;;;;;5089835;28;20020;-73
2022/06/28 01:11:18;;;;;;;6.10;0.82;;;15.20;99.90;;;;;;5095046;28;20056;-74
2022/06/28 01:13:47;;;;;;;2.25;0.73;;;15.20;99.90;;;;;;5084898;28;20498;-73
2022/06/28 01:16:13;;;;;;;3.85;1.25;;;15.20;99.90;;;;;;5082024;28;20036;-74
2022/06/28 01:18:39;;;;;;;4.72;0.90;;;15.10;99.90;;;;;;5088545;28;20499;-73
2022/06/28 01:21:05;;;;;;;4.90;0.90;;;15.10;99.90;;;;;;5095295;28;20063;-74
2022/06/28 01:23:32;;;;;;;6.35;1.00;;;15.10;99.90;;;;;;5095608;28;20111;-75
2022/06/28 01:25:58;;;;;;;4.78;0.90;;;15.20;99.90;;;;;;5080120;28;20032;-74
2022/06/28 01:28:24;;;;;;;5.22;1.10;;;15.10;99.90;;;;;;5095443;28;20150;-74
2022/06/28 01:30:51;;;;;;;7.18;1.02;;;15.10;99.90;;;;;;5095269;28;20114;-74
2022/06/28 01:33:17;;;;;;;2.95;0.70;;;15.10;99.90;;;;;;5094394;28;20038;-73
2022/06/28 01:35:43;;;;;;;5.72;1.10;;;15.10;99.90;;;;;;5096667;28;20028;-74
2022/06/28 01:38:10;;;;;;;7.55;0.68;;;15.00;99.90;;;;;;5095205;28;20031;-73
2022/06/28 01:40:35;;;;;;;4.15;1.33;;;15.00;99.90;;;;;;5094841;28;20022;-73
2022/06/28 01:43:01;;;;;;;6.45;1.00;;;15.00;99.90;;;;;;5080161;28;20031;-73
2022/06/28 01:45:28;;;;;;;8.00;1.23;;;14.90;99.90;;;;;;5094895;28;20034;-74
2022/06/28 01:47:54;;;;;;;1.60;0.77;;;14.90;99.90;;;;;;5094043;28;20031;-74
2022/06/28 01:50:20;;;;;;;5.60;1.35;;;14.90;99.90;;;;;;5095376;28;20028;-74
2022/06/28 01:52:46;;;;;;;3.25;1.23;;;14.80;99.90;;;;;;5094767;28;20368;-74
2022/06/28 01:55:12;;;;;;;2.67;1.00;;;14.80;99.90;;;;;;5093846;28;20020;-75
2022/06/28 01:57:38;;;;;;;8.27;1.02;;;14.70;99.90;;;;;;5095187;28;20028;-74
2022/06/28 02:00:05;;;;;;;3.67;1.05;;;14.70;99.90;;;;;;5094436;28;20016;-74
2022/06/28 02:02:31;;;;;;;5.90;1.20;;;14.60;99.90;;;;;;5094062;28;20052;-73
2022/06/28 02:04:56;;;;;;;3.65;0.90;;;14.60;99.90;;;;;;5093427;28;20036;-73
2022/06/28 02:07:22;;;;;;;5.38;1.02;;;14.60;99.90;;;;;;5094999;28;20016;-73
2022/06/28 02:09:48;;;;;;;4.95;1.10;;;14.60;99.90;;;;;;5093468;28;20140;-73
2022/06/28 02:12:14;;;;;;;4.28;0.98;;;14.50;99.90;;;;;;5094367;28;20123;-74
2022/06/28 02:14:40;;;;;;;4.30;1.20;;;14.50;99.90;;;;;;5094319;28;20077;-73
2022/06/28 02:17:05;;;;;;;10.45;1.55;;;14.50;99.90;;;;;;5079118;28;20028;-74
2022/06/28 02:19:31;;;;;;;2.97;1.00;;;14.40;99.90;;;;;;5094257;28;20016;-73
2022/06/28 02:21:56;;;;;;;2.45;1.20;;;14.30;99.90;;;;;;5093505;28;20064;-74
2022/06/28 02:24:22;;;;;;;4.93;1.10;;;14.30;99.90;;;;;;5094525;28;20383;-73
2022/06/28 02:26:47;;;;;;;2.85;1.10;;;14.30;99.90;;;;;;5093813;28;20468;-74
2022/06/28 02:29:13;;;;;;;7.95;1.48;;;14.20;99.90;;;;;;5093688;28;20032;-74
2022/06/28 02:31:38;;;;;;;6.25;1.45;;;14.20;99.90;;;;;;5094422;28;20040;-73
2022/06/28 02:34:05;;;;;;;27.83;1.75;;;14.20;99.90;;;;;;5093526;28;20024;-74
2022/06/28 02:41:50;;;;;;;4.70;1.67;;;14.10;99.90;;;;;;5093381;28;20115;-73
2022/06/28 02:44:16;;;;;;;3.67;1.30;;;14.10;99.90;;;;;;5093362;28;20093;-73
2022/06/28 02:46:42;;;;;;;4.40;1.45;;;14.00;99.90;;;;;;5093937;28;20369;-73
2022/06/28 02:49:08;;;;;;;2.42;0.85;;;14.00;99.90;;;;;;5093038;28;20028;-73
2022/06/28 02:51:33;;;;;;;6.25;1.08;;;14.10;99.90;;;;;;5092803;28;20085;-74
2022/06/28 02:53:59;;;;;;;6.32;1.42;;;14.10;99.90;;;;;;5093394;28;20020;-74
2022/06/28 02:56:25;;;;;;;7.80;1.27;;;14.10;99.90;;;;;;5093137;28;20039;-74
2022/06/28 02:58:51;;;;;;;3.85;1.23;;;14.00;99.90;;;;;;5092482;28;20020;-74
2022/06/28 03:01:17;;;;;;;2.05;1.10;;;14.00;99.90;;;;;;5093435;28;20027;-74
2022/06/28 03:03:43;;;;;;;4.75;1.25;;;14.10;99.90;;;;;;5093120;28;20040;-73
2022/06/28 03:06:08;;;;;;;4.70;1.38;;;14.00;99.90;;;;;;5092321;28;20060;-73
2022/06/28 03:08:34;;;;;;;3.33;1.35;;;14.00;99.90;;;;;;5092977;28;20427;-74
2022/06/28 03:11:00;;;;;;;3.45;1.42;;;14.00;99.90;;;;;;5092424;28;20042;-74
2022/06/28 03:13:26;;;;;;;6.88;1.55;;;14.00;99.90;;;;;;5092283;28;20474;-73
2022/06/28 03:15:51;;;;;;;3.20;1.23;;;14.00;99.90;;;;;;5085045;28;20048;-73
2022/06/28 03:18:17;;;;;;;4.97;1.60;;;14.10;99.90;;;;;;5085485;28;20489;-73
2022/06/28 03:20:44;;;;;;;5.68;1.58;;;14.00;99.90;;;;;;5093130;28;20069;-73
2022/06/28 03:23:10;;;;;;;3.92;1.40;;;13.90;99.90;;;;;;5093261;28;20020;-73
2022/06/28 03:25:35;;;;;;;4.30;1.30;;;13.90;99.90;;;;;;5092374;28;20472;-73
2022/06/28 03:28:03;;;;;;;7.28;1.40;;;13.80;99.90;;;;;;5092948;28;20069;-73
2022/06/28 03:30:29;;;;;;;1.63;1.23;;;13.90;99.90;;;;;;5092959;28;20063;-74
2022/06/28 03:32:58;;;;;;;6.65;1.75;;;13.80;99.90;;;;;;5091831;28;20055;-74
2022/06/28 03:35:23;;;;;;;5.57;1.55;;;13.90;99.90;;;;;;5092602;28;20024;-73
2022/06/28 03:37:49;;;;;;;4.88;1.30;;;13.80;99.90;;;;;;5092467;28;20031;-73
2022/06/28 03:40:15;;;;;;;5.10;1.23;;;13.80;99.90;;;;;;5092208;28;20024;-73
2022/06/28 03:42:44;;;;;;;4.53;1.45;;;13.70;99.90;;;;;;5092313;28;20458;-73
2022/06/28 03:45:09;;;;;;;3.70;1.40;;;13.70;99.90;;;;;;5092318;28;20181;-73
2022/06/28 03:47:35;;;;;;;3.03;1.20;;;13.70;99.90;;;;;;5091967;28;20111;-73
2022/06/28 03:50:01;;;;;;;3.97;1.33;;;13.70;99.90;;;;;;5092733;28;20472;-74
2022/06/28 03:52:29;;;;;;;6.63;1.10;;;13.70;99.90;;;;;;5092036;28;20043;-73
2022/06/28 03:54:58;;;;;;;4.35;1.38;;;13.60;99.90;;;;;;5091561;28;20480;-74
2022/06/28 03:57:25;;;;;;;4.10;1.48;;;13.60;99.90;;;;;;5092616;28;20028;-73
2022/06/28 03:59:51;;;;;;;3.53;1.20;;;13.60;99.90;;;;;;5091986;28;20161;-74
2022/06/28 04:02:17;;;;;;;5.47;1.50;;;13.60;99.90;;;;;;5091441;28;20559;-73
2022/06/28 04:04:42;;;;;;;5.45;1.60;;;13.60;99.90;;;;;;5092112;28;20016;-74
2022/06/28 04:07:08;;;;;;;3.10;1.17;;;13.60;99.90;;;;;;5091813;28;20024;-72
2022/06/28 04:09:34;;;;;;;8.90;1.83;;;13.70;99.90;;;;;;5091538;28;20027;-74
2022/06/28 04:11:59;;;;;;;4.80;1.55;;;13.70;99.90;;;;;;5091525;28;20090;-73
2022/06/28 04:14:25;;;;;;;4.70;1.67;;;13.70;99.90;;;;;;5091576;28;20024;-74
2022/06/28 04:16:50;;;;;;;5.10;1.80;;;13.70;99.90;;;;;;5077305;28;20081;-73
2022/06/28 04:19:16;;;;;;;6.07;1.80;;;13.80;99.90;;;;;;5091832;28;20426;-73
2022/06/28 04:21:42;;;;;;;5.35;1.80;;;13.90;99.90;;;;;;5091305;28;20067;-73
2022/06/28 04:24:07;;;;;;;8.88;1.77;;;13.80;99.90;;;;;;5091511;28;20036;-72
2022/06/28 04:26:33;;;;;;;4.90;2.20;;;13.90;99.90;;;;;;5091476;28;20031;-74
2022/06/28 04:28:59;;;;;;;4.55;1.70;;;13.90;99.90;;;;;;5090454;28;20016;-73
2022/06/28 04:31:24;;;;;;;8.65;2.75;;;13.90;99.90;;;;;;5091765;28;20036;-73
2022/06/28 04:33:50;;;;;;;6.60;1.85;;;14.00;99.90;;;;;;5091300;28;20446;-74
2022/06/28 04:36:16;;;;;;;6.28;1.95;;;13.90;99.90;;;;;;5090740;28;20028;-75
2022/06/28 04:38:41;;;;;;;12.43;2.15;;;14.00;99.90;;;;;;5091504;28;20042;-73
2022/06/28 04:41:17;;;;;;;13.45;2.33;;;14.10;99.90;;;;;;5091385;28;20081;-72
2022/06/28 04:43:42;;;;;;;5.85;1.83;;;14.00;99.90;;;;;;5091100;28;20385;-73
2022/06/28 04:46:08;;;;;;;9.15;2.40;;;14.10;99.90;;;;;;5091275;28;20035;-73
2022/06/28 04:48:34;;;;;;;8.50;2.13;;;14.10;99.90;;;;;;5091347;28;20492;-73
2022/06/28 04:51:10;;;;;;;7.57;2.08;;;14.20;99.90;;;;;;5090599;28;20493;-73
2022/06/28 04:53:40;;;;;;;5.38;2.15;;;14.20;99.90;;;;;;5091957;28;20032;-73
2022/06/28 04:56:07;;;;;;;9.82;2.58;;;14.30;99.90;;;;;;5091060;28;20449;-73
2022/06/28 04:58:33;;;;;;;15.43;2.50;;;14.40;99.90;;;;;;5091061;28;20028;-73
2022/06/28 05:01:00;;;;;;;9.48;2.30;;;14.50;99.90;;;;;;5091077;28;20353;-73
2022/06/28 05:03:25;;;;;;;7.95;2.30;;;14.50;99.90;;;;;;5091168;28;20059;-73
2022/06/28 05:05:51;;;;;;;7.20;2.70;;;14.60;99.90;;;;;;5090833;28;20020;-73
2022/06/28 05:08:17;;;;;;;10.23;2.20;;;14.70;99.90;;;;;;5091568;28;20027;-73
2022/06/28 05:10:42;;;;;;;8.88;2.40;;;14.70;99.90;;;;;;5091102;28;20353;-74
2022/06/28 05:13:08;;;;;;;11.05;2.75;;;14.80;99.90;;;;;;5090390;28;20032;-73
2022/06/28 05:15:33;;;;;;;6.28;2.15;;;14.80;99.90;;;;;;5085209;28;20094;-74
2022/06/28 05:17:59;;;;;;;9.77;2.88;;;14.90;99.90;;;;;;5081168;28;20140;-73
2022/06/28 05:20:25;;;;;;;16.10;3.22;;;15.10;99.90;;;;;;5091010;28;20059;-74
2022/06/28 05:22:50;;;;;;;8.30;2.60;;;15.10;99.90;;;;;;5091145;28;20386;-74
2022/06/28 05:25:16;;;;;;;12.20;3.35;;;15.20;99.90;;;;;;5090826;28;20064;-74
2022/06/28 05:27:41;;;;;;;11.75;2.92;;;15.20;99.90;;;;;;5091413;28;20023;-73
2022/06/28 05:30:08;;;;;;;15.77;3.22;;;15.20;99.90;;;;;;5078031;28;20958;-74
2022/06/28 05:32:33;;;;;;;11.63;3.72;;;15.20;99.90;;;;;;5068948;28;20043;-74
2022/06/28 05:34:59;;;;;;;11.80;3.38;;;15.30;99.90;;;;;;5069725;28;20024;-73
2022/06/28 05:37:24;;;;;;;14.65;3.08;;;15.30;99.90;;;;;;5069725;28;20465;-73
2022/06/28 05:39:50;;;;;;;12.27;2.97;;;15.40;99.90;;;;;;5070637;28;20042;-74
2022/06/28 05:42:16;;;;;;;9.32;2.75;;;15.30;99.90;;;;;;5079392;28;20025;-73
2022/06/28 05:44:43;;;;;;;11.95;3.60;;;15.30;99.90;;;;;;5075738;28;20183;-74
2022/06/28 05:47:10;;;;;;;6.88;2.95;;;15.50;99.90;;;;;;5072432;28;20103;-73
2022/06/28 05:49:36;;;;;;;13.10;3.50;;;15.40;99.90;;;;;;5073418;28;20016;-74
2022/06/28 05:52:01;;;;;;;15.32;3.38;;;15.50;99.90;;;;;;5076009;28;20093;-74
2022/06/28 05:54:27;;;;;;;7.50;2.95;;;15.60;99.90;;;;;;5075200;28;20488;-73
2022/06/28 05:56:52;;;;;;;12.98;3.75;;;15.60;99.90;;;;;;5075133;28;20025;-73
2022/06/28 05:59:18;;;;;;;15.43;3.88;;;15.70;99.90;;;;;;5074050;28;20025;-73
2022/06/28 06:01:44;;;;;;;9.38;3.83;;;15.80;99.90;;;;;;5073193;28;20171;-72
2022/06/28 06:04:09;;;;;;;13.05;3.53;;;15.90;99.90;;;;;;5073594;28;20093;-74
2022/06/28 06:06:35;;;;;;;12.80;3.45;;;15.80;99.90;;;;;;5079133;28;20077;-72
2022/06/28 06:09:00;;;;;;;13.13;3.92;;;15.90;99.90;;;;;;5073235;28;20024;-72
2022/06/28 06:11:26;;;;;;;15.75;4.63;;;16.00;99.90;;;;;;5073590;28;20040;-73
2022/06/28 06:13:52;;;;;;;10.55;4.10;;;16.00;99.90;;;;;;5079028;28;20095;-73
2022/06/28 06:16:18;;;;;;;13.82;3.65;;;16.10;99.90;;;;;;5072999;28;20036;-73
2022/06/28 06:18:43;;;;;;;13.13;3.55;;;16.10;99.90;;;;;;5090871;28;20047;-73
2022/06/28 06:21:09;;;;;;;11.68;3.28;;;16.10;99.90;;;;;;5093486;28;20055;-74
2022/06/28 06:23:35;;;;;;;13.48;3.95;;;16.10;99.90;;;;;;5093938;28;20143;-73
2022/06/28 06:26:01;;;;;;;20.13;4.00;;;16.20;99.90;;;;;;5093706;28;20028;-72
2022/06/28 06:28:27;;;;;;;14.45;3.67;;;16.20;99.90;;;;;;5092202;28;20036;-74
2022/06/28 06:30:53;;;;;;;13.93;4.25;;;16.30;99.90;;;;;;5091770;28;20026;-74
2022/06/28 06:33:18;;;;;;;15.85;4.28;;;16.30;99.90;;;;;;5092687;28;20066;-73
2022/06/28 06:35:47;;;;;;;13.25;3.60;;;16.40;99.90;;;;;;5087031;28;20048;-75
2022/06/28 06:38:13;;;;;;;13.90;3.42;;;16.40;99.90;;;;;;5091173;28;20024;-74
2022/06/28 06:40:38;;;;;;;18.25;4.05;;;16.40;99.90;;;;;;5090072;28;20043;-75
2022/06/28 06:43:04;;;;;;;19.13;4.75;;;16.40;99.90;;;;;;5085403;28;20460;-74
2022/06/28 06:45:30;;;;;;;23.50;4.53;;;16.50;99.90;;;;;;5085619;28;20038;-75
2022/06/28 06:47:55;;;;;;;15.95;4.18;;;16.50;99.90;;;;;;5089781;28;20024;-74
2022/06/28 06:50:22;;;;;;;20.80;4.70;;;16.60;99.90;;;;;;5084263;28;20085;-75
2022/06/28 06:52:48;;;;;;;20.08;3.97;;;16.60;99.90;;;;;;5083357;28;20068;-72
2022/06/28 06:55:14;;;;;;;13.55;3.50;;;16.60;99.90;;;;;;5075113;28;20012;-74
2022/06/28 06:57:40;;;;;;;15.25;4.05;;;16.70;99.90;;;;;;5071678;28;20368;-74
2022/06/28 07:00:10;;;;;;;12.63;3.65;;;16.70;99.90;;;;;;5071513;28;20025;-74
2022/06/28 07:02:40;;;;;;;15.32;4.00;;;16.70;99.90;;;;;;5073013;28;20048;-75
2022/06/28 07:05:06;;;;;;;15.98;3.63;;;16.70;99.90;;;;;;5073195;28;20028;-74
2022/06/28 07:07:32;;;;;;;8.73;3.28;;;16.70;99.90;;;;;;5072607;28;20062;-74
2022/06/28 07:09:58;;;;;;;16.75;3.60;;;16.80;99.90;;;;;;5072479;28;20056;-72
2022/06/28 07:12:24;;;;;;;20.15;4.40;;;16.80;99.90;;;;;;5073534;28;20484;-74
2022/06/28 07:14:50;;;;;;;16.70;4.38;;;16.90;99.90;;;;;;5079410;28;20035;-74
2022/06/28 07:17:16;;;;;;;21.60;3.83;;;16.90;99.90;;;;;;5073841;28;20734;-74
2022/06/28 07:19:41;;;;;;;11.80;3.67;;;17.00;99.90;;;;;;5073022;28;20013;-74
2022/06/28 07:22:07;;;;;;;13.57;3.25;;;17.10;99.90;;;;;;5071921;28;20525;-73
2022/06/28 07:24:33;;;;;;;15.07;3.38;;;17.20;99.90;;;;;;5069679;28;20720;-74
2022/06/28 07:26:58;;;;;;;8.50;2.70;;;16.60;99.90;;;;;;5071619;28;20544;-75
2022/06/28 07:29:24;;;;;;;18.90;3.72;;;17.30;99.90;;;;;;5072416;28;20029;-75
2022/06/28 07:31:50;;;;;;;11.07;2.28;;;17.40;99.90;;;;;;5077916;28;20040;-74
2022/06/28 07:34:16;;;;;;;11.57;3.30;;;17.40;99.90;;;;;;5071831;28;20024;-75
2022/06/28 07:36:41;;;;;;;11.15;2.90;;;17.50;99.90;;;;;;5077202;28;20033;-75
2022/06/28 07:39:07;;;;;;;14.52;3.58;;;17.60;99.90;;;;;;5082581;28;20024;-74
2022/06/28 07:41:32;;;;;;;10.93;2.83;;;17.70;99.90;;;;;;5092860;28;20070;-74
2022/06/28 07:43:58;;;;;;;12.02;2.85;;;17.90;99.90;;;;;;5095122;28;20024;-78
2022/06/28 07:46:24;;;;;;;14.18;2.88;;;17.90;99.90;;;;;;5092023;28;20103;-77
2022/06/28 07:48:50;;;;;;;11.98;2.80;;;18.00;99.90;;;;;;5092835;28;20080;-78
2022/06/28 07:54:04;;;;;;;12.23;2.92;;;18.00;99.90;;;;;;5087197;28;20039;-77
2022/06/28 07:56:30;;;;;;;13.73;2.60;;;18.10;99.90;;;;;;5075867;28;20039;-79
2022/06/28 07:58:56;;;;;;;11.90;2.78;;;18.10;99.90;;;;;;5072834;28;20028;-79
2022/06/28 08:01:22;;;;;;;9.10;2.72;;;18.10;99.90;;;;;;5071183;28;20033;-79
2022/06/28 08:03:48;;;;;;;10.18;2.15;;;18.20;99.90;;;;;;5074314;28;20484;-78
2022/06/28 08:06:13;;;;;;;10.63;2.50;;;18.20;99.90;;;;;;5084840;28;20035;-78
2022/06/28 08:08:39;;;;;;;11.30;2.70;;;18.10;99.90;;;;;;5072009;28;20032;-77
2022/06/28 08:11:05;;;;;;;5.30;1.70;;;18.30;99.90;;;;;;5071521;28;20416;-77
2022/06/28 08:13:30;;;;;;;5.97;2.15;;;18.20;99.90;;;;;;5086414;28;20368;-74
2022/06/28 08:15:58;;;;;;;9.65;1.95;;;18.30;99.90;;;;;;5083564;28;20070;-74
2022/06/28 08:18:23;;;;;;;6.85;2.03;;;18.30;99.90;;;;;;5079012;28;20028;-78
2022/06/28 08:20:49;;;;;;;5.63;2.22;;;18.40;99.90;;;;;;5090759;28;20779;-73
2022/06/28 08:23:15;;;;;;;6.57;2.47;;;18.40;99.90;;;;;;5090431;28;20063;-73
2022/06/28 08:25:43;;;;;;;21.88;2.85;;;18.40;99.90;;;;;;5090143;28;20024;-73
2022/06/28 08:28:11;;;;;;;5.35;2.08;;;18.50;99.90;;;;;;5089014;28;20028;-71
2022/06/28 08:30:37;;;;;;;6.00;2.00;;;18.60;99.90;;;;;;5089603;28;20507;-74
2022/06/28 08:33:02;;;;;;;5.57;1.73;;;18.60;99.90;;;;;;5083822;28;20032;-78
2022/06/28 08:35:28;;;;;;;8.68;1.92;;;18.60;99.90;;;;;;5088742;28;20103;-77
2022/06/28 08:37:54;;;;;;;7.80;2.25;;;18.70;99.90;;;;;;5085404;28;20024;-79
2022/06/28 08:40:22;;;;;;;10.95;2.78;;;18.80;99.90;;;;;;5089779;28;20024;-76
2022/06/28 08:42:51;;;;;;;11.18;2.80;;;18.80;99.90;;;;;;5087476;28;20472;-77
2022/06/28 08:45:19;;;;;;;11.05;2.25;;;18.90;99.90;;;;;;5087691;28;20058;-73
2022/06/28 08:47:47;;;;;;;7.90;2.30;;;19.00;99.90;;;;;;5088808;28;20053;-70
2022/06/28 08:50:23;;;;;;;9.70;2.85;;;19.10;99.90;;;;;;5085661;28;20444;-79
2022/06/28 08:52:49;;;;;;;10.88;2.45;;;19.10;99.90;;;;;;5087435;28;20043;-77
2022/06/28 08:55:14;;;;;;;12.13;2.78;;;19.20;99.90;;;;;;5090135;28;20031;-80
2022/06/28 08:57:41;;;;;;;8.70;2.30;;;19.20;99.90;;;;;;5090636;28;20024;-79
2022/06/28 09:00:10;;;;;;;7.65;2.22;;;19.20;99.90;;;;;;5081713;28;20073;-79
2022/06/28 09:02:36;;;;;;;11.32;2.58;;;19.20;99.90;;;;;;5080625;28;20079;-78
2022/06/28 09:05:03;;;;;;;11.43;3.40;;;19.20;99.90;;;;;;5073659;28;20024;-78
2022/06/28 09:07:29;;;;;;;7.97;2.47;;;19.30;99.90;;;;;;5075031;28;20060;-79
2022/06/28 09:09:56;;;;;;;9.95;2.28;;;19.30;99.90;;;;;;5079797;28;20062;-71
2022/06/28 09:12:22;;;;;;;7.57;2.15;;;19.50;99.90;;;;;;5081009;28;20035;-71
2022/06/28 09:14:48;;;;;;;9.13;2.20;;;19.50;99.90;;;;;;5086893;28;20020;-80
2022/06/28 09:17:24;;;;;;;11.73;2.20;;;19.70;99.90;;;;;;5089505;28;20024;-74
2022/06/28 09:20:02;;;;;;;7.05;2.50;;;19.70;99.90;;;;;;5087776;28;20031;-77
2022/06/28 09:22:31;;;;;;;10.63;2.05;;;19.80;99.90;;;;;;5093460;28;20023;-78
2022/06/28 09:24:58;;;;;;;10.25;2.95;;;19.90;99.90;;;;;;5086801;28;20032;-78
2022/06/28 09:27:32;;;;;;;11.52;2.45;;;20.00;99.90;;;;;;5074179;28;20027;-75
2022/06/28 09:29:58;;;;;;;7.07;2.03;;;20.00;99.90;;;;;;5074747;28;20028;-78
2022/06/28 09:32:32;;;;;;;10.10;2.55;;;20.00;99.90;;;;;;5074469;28;20032;-78
2022/06/28 09:35:00;;;;;;;5.25;2.03;;;20.20;99.90;;;;;;5074471;28;20028;-78
2022/06/28 09:37:47;;;;;;;10.35;3.15;;;20.10;99.90;;;;;;5092290;28;20074;-77
2022/06/28 09:40:39;;;;;;;7.25;2.38;;;20.10;99.90;;;;;;5081727;28;20031;-77
2022/06/28 09:43:07;;;;;;;6.18;1.73;;;20.10;99.90;;;;;;5070766;28;20025;-78
2022/06/28 09:45:38;;;;;;;10.00;2.08;;;20.10;99.90;;;;;;5074469;28;20020;-79
2022/06/28 09:48:04;;;;;;;10.38;2.63;;;20.20;99.90;;;;;;5073913;28;20029;-78
2022/06/28 09:50:32;;;;;;;9.10;2.42;;;20.20;99.90;;;;;;5074156;28;20024;-77
2022/06/28 09:52:59;;;;;;;13.55;3.22;;;20.20;99.90;;;;;;5073275;28;20036;-77
2022/06/28 09:55:27;;;;;;;8.27;1.80;;;20.20;99.90;;;;;;5074476;28;20024;-78
2022/06/28 09:57:54;;;;;;;5.80;1.90;;;20.30;99.90;;;;;;5074169;28;20031;-78
2022/06/28 10:00:21;;;;;;;6.93;1.38;;;20.40;99.90;;;;;;5073923;28;20032;-77
2022/06/28 10:02:47;;;;;;;8.75;2.50;;;20.40;99.90;;;;;;5081365;28;20154;-78
2022/06/28 10:05:13;;;;;;;3.45;1.40;;;20.50;99.90;;;;;;5074590;28;20021;-78
2022/06/28 10:07:40;;;;;;;8.20;1.98;;;20.50;99.90;;;;;;5080720;28;20032;-78
2022/06/28 10:10:08;;;;;;;5.63;1.58;;;20.50;99.90;;;;;;5074294;28;20103;-79
2022/06/28 10:15:23;;;;;;;13.30;2.47;;;20.60;99.90;;;;;;5089548;28;20173;-77
2022/06/28 10:17:56;;;;;;;7.13;2.20;;;20.70;99.90;;;;;;5088936;28;20029;-75
2022/06/28 10:20:27;;;;;;;5.97;2.08;;;20.70;99.90;;;;;;5087271;28;20028;-76
2022/06/28 10:23:24;;;;;;;6.07;1.92;;;20.80;99.20;;;;;;5088041;28;20020;-75
2022/06/28 10:26:08;;;;;;;8.05;1.85;;;20.80;99.60;;;;;;5082318;28;20032;-76
2022/06/28 10:28:46;;;;;;;5.07;1.48;;;20.90;99.90;;;;;;5088286;28;20688;-76
2022/06/28 10:31:23;;;;;;;5.82;1.60;;;20.90;99.00;;;;;;5089358;28;20137;-76
2022/06/28 10:34:26;;;;;;;5.38;1.30;;;21.00;99.10;;;;;;5081975;28;20024;-75
2022/06/28 10:36:56;;;;;;;3.58;1.35;;;21.10;99.20;;;;;;5044274;28;20024;-77
2022/06/28 10:39:28;;;;;;;5.38;1.30;;;21.10;99.00;;;;;;5091110;28;20016;-77
2022/06/28 10:41:59;;;;;;;4.15;1.10;;;21.20;98.30;;;;;;5090852;28;20020;-76
2022/06/28 10:44:46;;;;;;;4.32;1.50;;;21.20;97.90;;;;;;5076556;28;20025;-77
2022/06/28 10:47:15;;;;;;;5.28;1.13;;;21.30;97.60;;;;;;5079209;28;20036;-76
2022/06/28 10:49:46;;;;;;;6.13;1.80;;;21.30;97.60;;;;;;5075591;28;20025;-73
2022/06/28 10:52:19;;;;;;;2.50;1.08;;;21.30;96.90;;;;;;5088490;28;20024;-77
2022/06/28 10:54:56;;;;;;;3.45;1.33;;;21.30;97.60;;;;;;5079996;28;20032;-72
2022/06/28 10:57:34;;;;;;;5.50;1.13;;;21.50;97.60;;;;;;5071863;28;20033;-72
2022/06/28 11:00:21;;;;;;;3.65;1.45;;;21.50;97.40;;;;;;5088649;28;20439;-70
2022/06/28 11:02:49;;;;;;;8.93;1.50;;;21.70;97.90;;;;;;5092084;28;20411;-78
2022/06/28 11:05:16;;;;;;;7.50;1.80;;;21.70;96.70;;;;;;5075219;28;20081;-77
2022/06/28 11:07:56;;;;;;;2.92;1.00;;;21.70;96.30;;;;;;5082221;28;20020;-77
2022/06/28 11:10:21;;;;;;;3.70;1.37;;;21.80;96.60;;;;;;5073917;28;20092;-77
2022/06/28 11:12:47;;;;;;;4.10;1.40;;;21.80;95.70;;;;;;5072367;28;20298;-77
2022/06/28 11:15:32;;;;;;;2.20;1.00;;;21.80;95.60;;;;;;5074083;28;20020;-76
2022/06/28 11:17:59;;;;;;;5.15;1.30;;;21.80;95.90;;;;;;5073459;28;20464;-77
2022/06/28 11:20:25;;;;;;;5.32;1.40;;;21.80;95.20;;;;;;5071879;28;20098;-77
2022/06/28 11:22:51;;;;;;;2.50;1.00;;;21.80;94.50;;;;;;5074716;28;20439;-78
2022/06/28 11:25:19;;;;;;;2.97;1.10;;;21.90;94.70;;;;;;5083188;28;20476;-77
2022/06/28 11:27:58;;;;;;;3.15;1.02;;;22.00;94.90;;;;;;5083757;28;20028;-76
2022/06/28 11:30:28;;;;;;;2.53;1.23;;;22.00;94.30;;;;;;5073792;28;20484;-77
2022/06/28 11:32:59;;;;;;;5.20;1.20;;;22.10;94.90;;;;;;5092657;28;20043;-77
2022/06/28 11:35:30;;;;;;;4.13;1.42;;;22.10;95.10;;;;;;5091882;28;20032;-77
2022/06/28 11:37:57;;;;;;;4.97;1.30;;;22.10;94.40;;;;;;5091919;28;20016;-77
2022/06/28 11:40:29;;;;;;;2.90;1.17;;;22.10;93.20;;;;;;5093081;28;20024;-76
2022/06/28 11:43:08;;;;;;;1.77;0.95;;;22.10;93.70;;;;;;5092197;28;20031;-72
2022/06/28 11:45:36;;;;;;;4.15;1.02;;;22.10;93.60;;;;;;5091977;28;20016;-77
2022/06/28 11:48:09;;;;;;;4.78;1.40;;;22.20;93.30;;;;;;5091290;28;20035;-78
2022/06/28 11:50:42;;;;;;;4.03;1.48;;;22.20;93.20;;;;;;5076060;28;20123;-77
2022/06/28 11:53:10;;;;;;;5.95;1.40;;;22.20;93.50;;;;;;5080045;28;20063;-75
2022/06/28 11:55:37;;;;;;;4.88;1.10;;;22.30;92.80;;;;;;5092521;28;20020;-76
2022/06/28 11:58:13;;;;;;;3.10;1.00;;;22.30;93.50;;;;;;5091586;28;20118;-77
2022/06/28 12:00:40;;;;;;;3.13;1.20;;;22.40;93.40;;;;;;5091730;28;20322;-75
2022/06/28 12:03:06;;;;;;;4.15;1.42;;;22.50;93.00;;;;;;5092619;28;20052;-76
2022/06/28 12:05:34;;;;;;;4.10;1.13;;;22.60;93.50;;;;;;5092861;28;20028;-77
2022/06/28 12:08:01;;;;;;;5.97;1.65;;;22.60;93.20;;;;;;5091612;28;20027;-76
2022/06/28 12:10:32;;;;;;;3.15;1.20;;;22.70;92.60;;;;;;5093181;28;20028;-78
2022/06/28 12:13:08;;;;;;;4.95;1.73;;;22.60;92.70;;;;;;5091786;28;20851;-77
2022/06/28 12:15:34;;;;;;;3.22;1.00;;;22.70;92.80;;;;;;5088140;28;20017;-77
2022/06/28 12:18:02;;;;;;;4.75;1.30;;;22.70;93.50;;;;;;5081746;28;20383;-77
2022/06/28 12:20:29;;;;;;;2.65;1.17;;;22.90;93.20;;;;;;5091629;28;20475;-75
2022/06/28 12:23:00;;;;;;;2.50;0.95;;;23.00;93.20;;;;;;5092691;28;20035;-77
2022/06/28 12:25:26;;;;;;;4.03;1.02;;;23.10;92.90;;;;;;5092110;28;20017;-77
2022/06/28 12:27:52;;;;;;;2.63;0.88;;;23.30;93.00;;;;;;5090544;28;20028;-77
2022/06/28 12:30:18;;;;;;;5.30;2.28;;;23.50;93.00;;;;;;5091949;28;20495;-76
2022/06/28 12:32:45;;;;;;;5.65;1.08;;;23.60;92.00;;;;;;5093456;28;20047;-77
2022/06/28 12:35:11;;;;;;;5.80;1.30;;;23.70;92.30;;;;;;5092654;28;20025;-78
2022/06/28 12:37:37;;;;;;;6.75;1.70;;;23.70;92.20;;;;;;5071040;28;20428;-75
2022/06/28 12:40:04;;;;;;;3.90;1.65;;;23.80;92.00;;;;;;5070651;28;20055;-76
2022/06/28 12:42:31;;;;;;;8.65;2.17;;;23.70;91.80;;;;;;5081103;28;20111;-75
2022/06/28 12:45:01;;;;;;;6.22;1.73;;;23.70;92.00;;;;;;5087209;28;20035;-76
2022/06/28 12:47:31;;;;;;;3.97;1.95;;;23.90;91.60;;;;;;5084622;28;20069;-78
2022/06/28 12:49:59;;;;;;;;;;;24.00;92.10;;;;;;5087872;28;20476;-78
2022/06/28 12:52:26;;;;;;;1.65;0.90;;;24.20;92.40;;;;;;5094142;28;19958;-75
2022/06/28 12:54:51;;;;;;;4.05;1.40;;;24.50;91.70;;;;;;5087233;28;20037;-76
2022/06/28 12:57:17;;;;;;;6.90;1.90;;;24.60;90.80;;;;;;5092035;28;20032;-76
2022/06/28 12:59:43;;;;;;;3.05;1.67;;;24.70;90.30;;;;;;5092075;28;20020;-77